This is the latest recevied weather packets stored in our database for station/object DC0PP-10. If no packets are shown the sender has not sent any weather packets the latest 10 day(s).
| Time | Temp. | Humidity | Pressure | Rain* | Wind** | Luminosity | Snow |
|---|---|---|---|---|---|---|---|
| 1777273828 | 19.44° C | 47% | 1023 hPa | - | - | - | - |
| 1777272927 | 18.33° C | 49% | 1023 hPa | - | - | - | - |
| 1777272026 | 16.11° C | 51% | 1023 hPa | - | - | - | - |
| 1777271131 | 16.11° C | 52% | 1023.1 hPa | - | - | - | - |
| 1777270231 | 14.44° C | 56% | 1023.3 hPa | - | - | - | - |
| 1777269331 | 11.67° C | 66% | 1023.3 hPa | - | - | - | - |
| 1777268431 | 11.11° C | 67% | 1023.3 hPa | - | - | - | - |
| 1777267531 | 12.22° C | 64% | 1023.2 hPa | - | - | - | - |
| 1777266631 | 10° C | 73% | 1023.1 hPa | - | - | - | - |
| 1777265730 | 9.44° C | 74% | 1023.1 hPa | - | - | - | - |
| 1777264830 | 8.89° C | 77% | 1022.9 hPa | - | - | - | - |
| 1777263930 | 9.44° C | 77% | 1022.9 hPa | - | - | - | - |
| 1777263030 | 9.44° C | 76% | 1022.8 hPa | - | - | - | - |
| 1777262130 | 9.44° C | 75% | 1022.8 hPa | - | - | - | - |
| 1777261230 | 10° C | 72% | 1022.7 hPa | - | - | - | - |
| 1777260329 | 10° C | 69% | 1022.9 hPa | - | - | - | - |
| 1777259429 | 10° C | 72% | 1022.8 hPa | - | - | - | - |
| 1777258529 | 10° C | 73% | 1022.5 hPa | - | - | - | - |
| 1777257629 | 10° C | 72% | 1022.7 hPa | - | - | - | - |
| 1777256729 | 9.44° C | 75% | 1022.7 hPa | - | - | - | - |
| 1777255829 | 10.56° C | 72% | 1022.7 hPa | - | - | - | - |
| 1777254928 | 10.56° C | 71% | 1022.7 hPa | - | - | - | - |
| 1777254027 | 10.56° C | 70% | 1022.6 hPa | - | - | - | - |
| 1777253127 | 11.11° C | 69% | 1022.7 hPa | - | - | - | - |
| 1777252227 | 10.56° C | 69% | 1022.9 hPa | - | - | - | - |
* Rain since midnight (hover to see other rain measurements)
** Current wind speed in m/s (hover to see current wind gust speed)